Aeroporto :
LOGIN :

Iscrizione | Disclaimer

   EN    FR    IT 

 










Sommario :    VFR   VFR Marginale   IFR   IFR Intensivo   IFR Molto Intensivo
Visibilità : 
Base nubi : 
>= 8 km
>= 3000ft
5 / 8 km
1000 / 3000 ft
1500m / 5 km
500 / 1000 ft
800 / 1500m
200 / 500 ft
< 800m
< 200 ft
Simboli :   Temporali  Nebbia  Neve Forte  Precipitazioni Forti  Vento > 20 kt
SIGMETs :   Varie  Temporali  Ghiacco  Turbolenza  Onda orograficha  Ceneri Vulcaniche







- Altitudine del aeroporto : 681 ft
- Codice IATA : LBA
- Carte del aeroporto


EGNM - Leeds Bradford

ULTIMO METAR :
  • 252150Z 02011KT 350V060 2200 -RA BR SCT002 BKN003 11/11 Q1026

METARs OBSOLETI :
  • 252120Z 02011G21KT 350V060 1900 -DZ BR SCT002 BKN003 11/11 Q1026
  • 252050Z 02011KT 340V070 1800 -DZ BR SCT002 BKN003 11/11 Q1025
  • 252020Z 02009KT 330V090 1800 SCT002 BKN003 11/11 Q1025
  • 251950Z 03011KT 350V070 3000 SCT002 BKN003 12/11 Q1025
  • 251920Z 02013KT 350V060 1600 -DZ BR SCT002 BKN003 12/12 Q1024

TAF TAF EGNM
Valido dal 25 a 18 ore il 26 a 18 ore UTC


251656Z 2518/2618 02012KT 9999 BKN006
BECMG 2518/2521 8000
TEMPO 2518/2607 4000 -RA BR BKN003
PROB30
TEMPO 2521/2607 0200 FG BKN001
BECMG 2607/2610 9999 SCT025
PROB30
TEMPO 2610/2612 6000 BKN012
ATIS : +44 113 250 9696 (x2489)
Nessun NOTAM noto per questo aeroporto.



MetMap, La meteo Aeronautica in un colpo d'occhio ! - Copyright ORBIFLY Dicembre 2007 - Disclaimer

ORBIFLY MET'MAP TEAM :

Programmazione e sviluppo : Alexandra Zaïnal
Concezione e sviluppo : Baudouin d'Aumeries
Co-Programmazione e sviluppo : Marc-Olivier Méhu
Supporto tecnico e logistico : Manuel Goepfert
Aiuto per la traduzione : Arnaldo La Scala

Contatto : metmap@orbifly.com




FONTI E CREDITI :

   NOAA